createdAt,value
2019-02-28T00:00:37.266Z,26.73
2019-02-28T00:03:08.751Z,26.12
2019-02-28T00:05:39.263Z,26.73
2019-02-28T00:08:09.771Z,27.55
2019-02-28T00:10:40.327Z,28.17
2019-02-28T00:13:10.727Z,29.23
2019-02-28T00:15:41.253Z,28.70
2019-02-28T00:18:15.220Z,26.45
2019-02-28T00:20:43.948Z,25.25
2019-02-28T00:23:14.402Z,28.02
2019-02-28T00:25:44.886Z,29.23
2019-02-28T00:28:15.394Z,28.90
2019-02-28T00:30:45.893Z,28.17
2019-02-28T00:33:16.351Z,31.07
2019-02-28T00:35:47.252Z,27.62
2019-02-28T00:38:17.733Z,31.68
2019-02-28T00:40:48.219Z,29.82
2019-02-28T00:43:18.721Z,31.30
2019-02-28T00:45:49.139Z,31.17
2019-02-28T00:48:21.728Z,31.62
2019-02-28T00:50:51.790Z,30.20
2019-02-28T00:53:22.272Z,30.77
2019-02-28T00:55:52.698Z,33.18
2019-02-28T00:58:23.244Z,31.43
2019-02-28T01:00:53.789Z,30.48
2019-02-28T01:03:27.274Z,30.70
2019-02-28T01:05:56.487Z,32.15
2019-02-28T01:08:27.011Z,30.92
2019-02-28T01:10:57.479Z,31.77
2019-02-28T01:13:28.199Z,32.73
2019-02-28T01:15:58.665Z,32.85
2019-02-28T01:18:29.189Z,32.65
2019-02-28T01:20:59.661Z,33.63
2019-02-28T01:23:30.223Z,33.23
2019-02-28T01:26:00.737Z,32.70
2019-02-28T01:28:31.223Z,32.63
2019-02-28T01:31:01.723Z,33.25
2019-02-28T01:33:32.185Z,32.23
2019-02-28T01:36:02.611Z,33.35
2019-02-28T01:38:33.026Z,32.20
2019-02-28T01:41:03.526Z,33.63
2019-02-28T01:43:33.947Z,33.53
2019-02-28T01:46:04.442Z,34.05
2019-02-28T01:48:34.910Z,33.92
2019-02-28T01:51:05.388Z,34.00
2019-02-28T01:53:35.914Z,33.35
2019-02-28T01:56:06.403Z,32.60
2019-02-28T01:58:36.882Z,34.25
2019-02-28T02:01:07.424Z,33.33
2019-02-28T02:03:40.653Z,34.70
2019-02-28T02:06:10.163Z,35.03
2019-02-28T02:08:40.679Z,34.55
2019-02-28T02:11:11.176Z,35.10
2019-02-28T02:13:41.663Z,36.08
2019-02-28T02:16:12.215Z,34.50
2019-02-28T02:18:43.402Z,33.07
2019-02-28T02:21:14.865Z,36.45
2019-02-28T02:23:45.438Z,33.92
2019-02-28T02:26:15.897Z,34.53
2019-02-28T02:28:46.431Z,35.45
2019-02-28T02:31:16.929Z,37.80
2019-02-28T02:33:52.358Z,37.08
2019-02-28T02:36:19.650Z,35.17
2019-02-28T02:38:50.263Z,36.05
2019-02-28T02:41:20.775Z,36.58
2019-02-28T02:43:55.046Z,36.90
2019-02-28T02:46:23.488Z,35.40
2019-02-28T02:48:53.990Z,39.10
2019-02-28T02:51:24.491Z,38.60
2019-02-28T02:53:54.963Z,36.85
2019-02-28T02:56:25.484Z,37.78
2019-02-28T02:58:55.965Z,37.42
2019-02-28T03:01:26.472Z,37.60
2019-02-28T03:03:56.956Z,39.25
2019-02-28T03:06:27.430Z,36.90
2019-02-28T03:08:58.001Z,39.27
2019-02-28T03:11:28.403Z,38.05
2019-02-28T03:13:58.915Z,39.18
2019-02-28T03:16:48.515Z,39.03
2019-02-28T03:19:19.005Z,40.15
2019-02-28T03:21:52.631Z,39.53
2019-02-28T03:24:21.642Z,39.85
2019-02-28T03:26:52.176Z,40.50
2019-02-28T03:29:22.547Z,38.28
2019-02-28T03:31:56.766Z,38.13
2019-02-28T03:34:25.235Z,39.45
2019-02-28T03:36:57.429Z,41.65
2019-02-28T03:39:27.907Z,40.50
2019-02-28T03:41:58.364Z,39.63
2019-02-28T03:44:28.885Z,39.27
2019-02-28T03:46:59.382Z,41.40
2019-02-28T03:49:29.891Z,40.20
2019-02-28T03:52:05.511Z,39.18
2019-02-28T03:54:32.642Z,39.00
2019-02-28T03:57:03.080Z,40.45
2019-02-28T03:59:33.990Z,39.60
2019-02-28T04:02:04.566Z,40.43
2019-02-28T04:04:35.018Z,41.35
2019-02-28T04:07:05.666Z,39.27
2019-02-28T04:09:36.167Z,39.80
2019-02-28T04:12:08.646Z,39.90
2019-02-28T04:14:38.932Z,39.07
2019-02-28T04:17:09.442Z,38.30
2019-02-28T04:19:39.982Z,38.73
2019-02-28T04:22:10.582Z,39.67
2019-02-28T04:24:41.151Z,39.50
2019-02-28T04:27:11.613Z,39.03
2019-02-28T04:29:42.190Z,38.80
2019-02-28T04:32:12.730Z,40.35
2019-02-28T04:34:45.801Z,40.08
2019-02-28T04:37:15.523Z,38.25
2019-02-28T04:39:46.013Z,41.20
2019-02-28T04:42:16.507Z,38.88
2019-02-28T04:44:49.245Z,40.38
2019-02-28T04:47:19.279Z,40.92
2019-02-28T04:49:49.789Z,42.38
2019-02-28T04:52:20.317Z,41.05
2019-02-28T04:54:50.823Z,42.08
2019-02-28T04:57:21.618Z,42.03
2019-02-28T04:59:52.126Z,40.87
2019-02-28T05:02:22.663Z,39.98
2019-02-28T05:04:53.562Z,41.60
2019-02-28T05:07:26.297Z,41.98
2019-02-28T05:09:58.706Z,42.87
2019-02-28T05:12:29.323Z,43.63
2019-02-28T05:15:02.154Z,42.50
2019-02-28T05:17:32.161Z,42.93
2019-02-28T05:20:02.875Z,41.95
2019-02-28T05:22:33.836Z,43.20
2019-02-28T05:25:04.386Z,42.90
2019-02-28T05:27:36.315Z,43.42
2019-02-28T05:30:09.661Z,44.23
2019-02-28T05:32:40.258Z,43.33
2019-02-28T05:35:10.791Z,47.20
2019-02-28T05:37:46.456Z,45.70
2019-02-28T05:40:14.293Z,45.20
2019-02-28T05:42:45.315Z,45.92
2019-02-28T05:45:15.925Z,46.55
2019-02-28T05:47:47.443Z,47.25
2019-02-28T05:50:18.175Z,44.98
2019-02-28T05:52:48.706Z,46.30
2019-02-28T05:55:24.485Z,46.25
2019-02-28T05:57:51.526Z,44.83
2019-02-28T06:00:23.232Z,44.60
2019-02-28T06:02:54.413Z,47.40
2019-02-28T06:05:25.893Z,47.48
2019-02-28T06:07:56.459Z,48.02
2019-02-28T06:10:26.952Z,48.23
2019-02-28T06:12:57.483Z,50.10
2019-02-28T06:15:29.007Z,48.17
2019-02-28T06:17:59.684Z,46.63
2019-02-28T06:20:30.196Z,49.60
2019-02-28T06:23:00.735Z,46.88
2019-02-28T06:25:31.302Z,48.68
2019-02-28T06:28:01.767Z,49.00
2019-02-28T06:30:32.317Z,48.10
2019-02-28T06:33:02.813Z,51.40
2019-02-28T06:35:33.331Z,50.70
2019-02-28T06:38:06.671Z,52.58
2019-02-28T06:40:36.158Z,53.15
2019-02-28T06:43:06.652Z,51.65
2019-02-28T06:45:37.785Z,48.05
2019-02-28T06:48:08.410Z,51.63
2019-02-28T06:50:38.937Z,52.10
2019-02-28T06:53:09.557Z,48.35
2019-02-28T06:55:47.892Z,49.17
2019-02-28T06:58:19.334Z,51.55
2019-02-28T07:00:50.521Z,47.90
2019-02-28T07:03:21.077Z,47.67
2019-02-28T07:05:51.651Z,48.65
2019-02-28T07:08:24.643Z,48.80
2019-02-28T07:10:54.407Z,47.78
2019-02-28T07:13:24.996Z,48.70
2019-02-28T07:15:58.906Z,48.90
2019-02-28T07:18:27.810Z,50.50
2019-02-28T07:20:58.458Z,47.43
2019-02-28T07:23:30.189Z,50.33
2019-02-28T07:26:01.258Z,48.52
2019-02-28T07:28:36.185Z,49.13
2019-02-28T07:31:04.067Z,49.85
2019-02-28T07:33:34.534Z,53.23
2019-02-28T07:36:05.591Z,49.00
2019-02-28T07:38:37.302Z,47.45
2019-02-28T07:41:07.810Z,47.30
2019-02-28T07:43:38.373Z,47.65
2019-02-28T07:46:08.988Z,48.30
2019-02-28T07:48:39.487Z,47.78
2019-02-28T07:51:10.054Z,48.40
2019-02-28T07:53:41.981Z,47.50
2019-02-28T07:56:12.476Z,45.83
2019-02-28T07:58:43.057Z,44.13
2019-02-28T08:01:13.619Z,43.05
2019-02-28T08:03:44.944Z,43.70
2019-02-28T08:06:15.621Z,45.67
2019-02-28T08:08:46.096Z,41.18
2019-02-28T08:11:19.931Z,39.98
2019-02-28T08:13:48.884Z,39.47
2019-02-28T08:16:19.413Z,38.58
2019-02-28T08:18:51.086Z,38.67
2019-02-28T08:21:22.247Z,39.05
2019-02-28T08:23:52.735Z,39.05
2019-02-28T08:26:23.251Z,37.15
2019-02-28T08:28:53.825Z,40.00
2019-02-28T08:31:24.328Z,35.55
2019-02-28T08:33:54.917Z,36.77
2019-02-28T08:36:25.439Z,32.45
2019-02-28T08:38:55.971Z,31.23
2019-02-28T08:41:26.450Z,30.40
2019-02-28T08:43:57.026Z,30.57
2019-02-28T08:46:27.563Z,29.60
2019-02-28T08:48:58.125Z,32.98
2019-02-28T08:51:30.840Z,30.97
2019-02-28T08:54:00.870Z,28.60
2019-02-28T08:56:32.260Z,27.60
2019-02-28T08:59:11.616Z,28.07
2019-02-28T09:01:39.908Z,27.95
2019-02-28T09:04:07.606Z,29.55
2019-02-28T09:06:41.080Z,27.75
2019-02-28T09:09:14.670Z,29.57
2019-02-28T09:11:45.346Z,27.82
2019-02-28T09:14:17.802Z,29.45
2019-02-28T09:16:48.178Z,28.70
2019-02-28T09:19:18.743Z,27.10
2019-02-28T09:21:52.740Z,27.93
2019-02-28T09:24:21.707Z,28.77
2019-02-28T09:26:52.190Z,25.62
2019-02-28T09:29:22.660Z,25.43
2019-02-28T09:31:53.190Z,26.30
2019-02-28T09:34:23.676Z,24.15
2019-02-28T09:36:56.663Z,24.18
2019-02-28T09:39:26.345Z,23.62
2019-02-28T09:41:56.790Z,22.02
2019-02-28T09:44:27.301Z,21.65
2019-02-28T09:46:57.791Z,21.17
2019-02-28T09:49:28.300Z,21.93
2019-02-28T09:51:58.815Z,19.92
2019-02-28T09:54:29.408Z,17.25
2019-02-28T09:57:01.140Z,18.62
2019-02-28T09:59:37.369Z,18.20
2019-02-28T10:02:07.922Z,18.77
2019-02-28T10:04:39.073Z,20.37
2019-02-28T10:07:09.602Z,18.35
2019-02-28T10:09:40.507Z,17.75
2019-02-28T10:12:12.263Z,18.67
2019-02-28T10:14:42.820Z,15.53
2019-02-28T10:17:13.286Z,18.23
2019-02-28T10:19:45.886Z,17.50
2019-02-28T10:22:16.108Z,16.25
2019-02-28T10:24:46.599Z,18.82
2019-02-28T10:27:17.090Z,18.82
2019-02-28T10:29:47.556Z,19.20
2019-02-28T10:32:18.039Z,18.62
2019-02-28T10:34:48.537Z,18.97
2019-02-28T10:37:19.298Z,19.92
2019-02-28T10:39:51.117Z,18.15
2019-02-28T10:42:21.595Z,17.35
2019-02-28T10:44:52.131Z,17.42
2019-02-28T10:47:28.212Z,19.20
2019-02-28T10:49:55.399Z,16.90
2019-02-28T10:52:30.462Z,18.87
2019-02-28T10:54:59.194Z,17.98
2019-02-28T10:57:29.785Z,17.10
2019-02-28T11:00:00.305Z,17.87
2019-02-28T11:02:30.786Z,16.73
2019-02-28T11:05:01.267Z,16.97
2019-02-28T11:07:34.192Z,16.40
2019-02-28T11:10:04.406Z,16.30
2019-02-28T11:12:36.344Z,15.78
2019-02-28T11:15:07.281Z,16.87
2019-02-28T11:17:37.857Z,15.43
2019-02-28T11:20:21.646Z,14.95
2019-02-28T11:22:42.771Z,16.62
2019-02-28T11:25:13.685Z,13.83
2019-02-28T11:27:44.251Z,14.85
2019-02-28T11:30:16.539Z,16.27
2019-02-28T11:32:47.105Z,14.07
2019-02-28T11:35:20.062Z,13.75
2019-02-28T11:37:50.023Z,13.62
2019-02-28T11:40:22.672Z,13.83
2019-02-28T11:42:53.126Z,13.40
2019-02-28T11:45:25.716Z,13.60
2019-02-28T11:47:58.203Z,13.53
2019-02-28T11:50:28.660Z,13.87
2019-02-28T11:53:03.278Z,13.68
2019-02-28T11:55:31.418Z,12.58
2019-02-28T11:58:01.936Z,13.30
2019-02-28T12:00:35.647Z,12.85
2019-02-28T12:03:05.968Z,13.70
2019-02-28T12:05:36.700Z,13.03
2019-02-28T12:08:10.481Z,13.80
2019-02-28T12:10:39.372Z,14.77
2019-02-28T12:13:09.864Z,13.18
2019-02-28T12:15:40.373Z,12.33
2019-02-28T12:18:10.844Z,13.20
2019-02-28T12:20:41.324Z,12.30
2019-02-28T12:23:11.789Z,12.68
2019-02-28T12:25:42.929Z,12.35
2019-02-28T12:28:14.207Z,11.35
2019-02-28T12:30:44.667Z,12.25
2019-02-28T12:33:15.498Z,14.80
2019-02-28T12:35:47.385Z,13.20
2019-02-28T12:38:17.883Z,12.50
2019-02-28T12:40:49.502Z,14.35
2019-02-28T12:43:20.279Z,13.30
2019-02-28T12:45:50.845Z,14.43
2019-02-28T12:48:21.348Z,13.98
2019-02-28T12:50:51.851Z,12.28
2019-02-28T12:53:25.271Z,13.30
2019-02-28T12:55:54.557Z,14.83
2019-02-28T12:58:25.009Z,12.95
2019-02-28T13:00:56.450Z,14.17
2019-02-28T13:03:27.682Z,12.58
2019-02-28T13:05:58.215Z,14.50
2019-02-28T13:08:28.777Z,12.93
2019-02-28T13:11:03.487Z,12.28
2019-02-28T13:13:31.573Z,13.90
2019-02-28T13:16:02.058Z,13.18
2019-02-28T13:18:32.558Z,13.80
2019-02-28T13:21:06.209Z,11.57
2019-02-28T13:23:35.229Z,13.20
2019-02-28T13:26:05.851Z,11.75
2019-02-28T13:28:36.331Z,13.00
2019-02-28T13:31:06.824Z,12.70
2019-02-28T13:33:37.329Z,12.57
2019-02-28T13:36:08.329Z,12.47
2019-02-28T13:38:38.787Z,11.85
2019-02-28T13:41:09.319Z,12.88
2019-02-28T13:43:39.791Z,12.00
2019-02-28T13:46:12.934Z,14.10
2019-02-28T13:48:42.578Z,12.40
2019-02-28T13:51:13.093Z,13.35
2019-02-28T13:53:43.505Z,12.88
2019-02-28T13:56:14.008Z,12.53
2019-02-28T13:58:44.525Z,13.90
2019-02-28T14:01:15.041Z,12.60
2019-02-28T14:03:45.957Z,13.28
2019-02-28T14:06:19.782Z,12.37
2019-02-28T14:08:49.647Z,12.30
2019-02-28T14:11:20.453Z,13.43
2019-02-28T14:13:50.868Z,12.37
2019-02-28T14:16:26.336Z,14.93
2019-02-28T14:18:54.763Z,14.43
2019-02-28T14:21:25.436Z,13.68
2019-02-28T14:23:56.773Z,13.90
2019-02-28T14:26:27.388Z,13.60
2019-02-28T14:28:57.928Z,13.50
2019-02-28T14:31:29.469Z,13.05
2019-02-28T14:34:00.744Z,14.53
2019-02-28T14:36:31.350Z,13.43
2019-02-28T14:39:04.794Z,14.07
2019-02-28T14:41:34.023Z,13.73
2019-02-28T14:44:04.558Z,14.38
2019-02-28T14:46:35.084Z,13.58
2019-02-28T14:49:05.612Z,14.10
2019-02-28T14:51:36.149Z,11.50
2019-02-28T14:54:06.701Z,13.50
2019-02-28T14:56:39.520Z,11.33
2019-02-28T14:59:09.333Z,11.97
2019-02-28T15:01:39.869Z,12.43
2019-02-28T15:04:10.333Z,12.10
2019-02-28T15:06:40.820Z,11.20
2019-02-28T15:09:18.920Z,11.55
2019-02-28T15:11:49.395Z,12.40
2019-02-28T15:14:19.839Z,10.43
2019-02-28T15:16:50.411Z,9.00
2019-02-28T15:19:21.338Z,10.00
2019-02-28T15:21:53.071Z,10.50
2019-02-28T15:24:23.546Z,9.48
2019-02-28T15:26:54.095Z,9.25
2019-02-28T15:29:26.308Z,8.35
2019-02-28T15:31:56.854Z,8.70
2019-02-28T15:34:27.393Z,9.65
2019-02-28T15:36:59.344Z,7.93
2019-02-28T15:39:30.227Z,8.40
2019-02-28T15:42:00.705Z,8.13
2019-02-28T15:44:31.224Z,8.35
2019-02-28T15:47:01.729Z,7.67
2019-02-28T15:49:32.253Z,7.15
2019-02-28T15:52:05.292Z,6.20
2019-02-28T15:54:35.145Z,7.12
2019-02-28T15:57:05.743Z,6.95
2019-02-28T15:59:36.310Z,7.23
2019-02-28T16:02:07.273Z,7.03
2019-02-28T16:04:37.955Z,6.40
2019-02-28T16:07:08.450Z,7.23
2019-02-28T16:09:39.062Z,7.05
2019-02-28T16:12:12.484Z,7.03
2019-02-28T16:14:42.499Z,7.62
2019-02-28T16:17:13.071Z,6.25
2019-02-28T16:19:43.596Z,6.80
2019-02-28T16:22:18.228Z,6.80
2019-02-28T16:24:47.475Z,7.00
2019-02-28T16:27:17.954Z,6.73
2019-02-28T16:29:48.393Z,5.90
2019-02-28T16:32:18.850Z,6.95
2019-02-28T16:34:50.697Z,6.78
2019-02-28T16:37:21.177Z,6.97
2019-02-28T16:39:51.712Z,7.95
2019-02-28T16:42:24.260Z,6.95
2019-02-28T16:44:54.493Z,7.72
2019-02-28T16:47:25.218Z,6.35
2019-02-28T16:49:55.723Z,6.20
2019-02-28T16:52:26.245Z,6.75
2019-02-28T16:54:57.071Z,6.60
2019-02-28T16:57:27.968Z,6.40
2019-02-28T16:59:58.473Z,7.10
2019-02-28T17:02:29.267Z,6.47
2019-02-28T17:05:00.636Z,7.17
2019-02-28T17:07:31.141Z,6.45
2019-02-28T17:10:04.591Z,6.55
2019-02-28T17:12:46.649Z,7.20
2019-02-28T17:15:24.038Z,7.17
2019-02-28T17:17:58.247Z,6.40
2019-02-28T17:20:33.828Z,7.00
2019-02-28T17:23:01.455Z,7.20
2019-02-28T17:25:32.687Z,6.70
2019-02-28T17:28:40.159Z,8.00
2019-02-28T17:31:35.450Z,7.67
2019-02-28T17:34:06.198Z,7.43
2019-02-28T17:36:36.708Z,7.65
2019-02-28T17:39:11.368Z,6.95
2019-02-28T17:41:41.572Z,6.80
2019-02-28T17:45:15.496Z,7.10
2019-02-28T17:48:48.620Z,8.33
2019-02-28T17:51:58.563Z,6.50
2019-02-28T17:55:11.551Z,7.70
2019-02-28T17:58:09.451Z,7.90
2019-02-28T18:01:51.009Z,7.40
2019-02-28T18:05:06.417Z,7.50
2019-02-28T18:08:37.592Z,8.28
2019-02-28T18:12:06.023Z,9.33
2019-02-28T18:15:18.311Z,8.90
2019-02-28T18:19:00.832Z,7.60
2019-02-28T18:22:25.868Z,8.40
2019-02-28T18:25:30.691Z,8.85
2019-02-28T18:28:58.809Z,8.50
2019-02-28T18:31:29.539Z,7.70
2019-02-28T18:34:16.997Z,9.35
2019-02-28T18:36:47.545Z,8.78
2019-02-28T18:39:18.100Z,8.65
2019-02-28T18:41:50.739Z,9.00
2019-02-28T18:44:21.391Z,8.23
2019-02-28T18:46:52.324Z,9.45
2019-02-28T18:49:23.017Z,7.72
2019-02-28T18:51:53.606Z,8.80
2019-02-28T18:54:24.072Z,8.60
2019-02-28T18:56:54.554Z,9.28
2019-02-28T18:59:25.891Z,9.00
2019-02-28T19:01:56.612Z,8.68
2019-02-28T19:04:27.075Z,7.80
2019-02-28T19:06:57.595Z,7.97
2019-02-28T19:09:28.134Z,8.53
2019-02-28T19:11:58.700Z,7.65
2019-02-28T19:14:29.200Z,9.55
2019-02-28T19:17:00.832Z,8.38
2019-02-28T19:19:31.955Z,8.45
2019-02-28T19:22:02.467Z,8.28
2019-02-28T19:24:33.032Z,9.08
2019-02-28T19:27:03.572Z,7.90
2019-02-28T19:29:34.119Z,7.28
2019-02-28T19:32:04.754Z,7.53
2019-02-28T19:34:35.317Z,6.78
2019-02-28T19:37:05.782Z,6.87
2019-02-28T19:39:36.354Z,6.90
2019-02-28T19:42:06.898Z,7.00
2019-02-28T19:44:37.432Z,6.50
2019-02-28T19:47:07.952Z,6.53
2019-02-28T19:49:38.555Z,7.40
2019-02-28T19:52:09.093Z,6.80
2019-02-28T19:54:39.719Z,6.35
2019-02-28T19:57:10.310Z,6.47
2019-02-28T19:59:40.889Z,5.90
2019-02-28T20:02:11.898Z,5.47
2019-02-28T20:04:42.420Z,6.47
2019-02-28T20:07:14.870Z,7.00
2019-02-28T20:09:45.312Z,6.33
2019-02-28T20:12:15.885Z,6.25
2019-02-28T20:14:46.517Z,6.90
2019-02-28T20:17:17.071Z,5.92
2019-02-28T20:19:50.807Z,6.03
2019-02-28T20:22:21.454Z,6.55
2019-02-28T20:24:52.036Z,8.85
2019-02-28T20:27:22.560Z,7.58
2019-02-28T20:29:55.323Z,7.47
2019-02-28T20:32:25.400Z,6.87
2019-02-28T20:34:56.016Z,8.20
2019-02-28T20:37:26.549Z,7.20
2019-02-28T20:39:57.126Z,8.38
2019-02-28T20:42:27.684Z,8.58
2019-02-28T20:44:58.216Z,7.30
2019-02-28T20:47:28.769Z,7.92
2019-02-28T20:49:59.341Z,7.92
2019-02-28T20:52:30.020Z,7.35
2019-02-28T20:55:00.751Z,7.78
2019-02-28T20:57:31.287Z,7.77
2019-02-28T21:00:01.871Z,8.23
2019-02-28T21:02:32.381Z,7.57
2019-02-28T21:05:02.947Z,8.03
2019-02-28T21:07:33.478Z,7.47
2019-02-28T21:10:05.162Z,6.70
2019-02-28T21:12:35.890Z,7.72
2019-02-28T21:15:08.061Z,7.87
2019-02-28T21:17:38.572Z,7.83
2019-02-28T21:20:12.177Z,7.00
2019-02-28T21:22:42.612Z,6.50
2019-02-28T21:25:32.322Z,7.92
2019-02-28T21:28:02.811Z,7.47
2019-02-28T21:30:33.393Z,7.60
2019-02-28T21:33:03.902Z,8.40
2019-02-28T21:35:34.528Z,7.95
2019-02-28T21:38:05.092Z,9.43
2019-02-28T21:40:35.609Z,8.53
2019-02-28T21:43:06.188Z,7.67
2019-02-28T21:45:37.020Z,8.48
2019-02-28T21:48:07.621Z,8.78
2019-02-28T21:50:38.140Z,8.50
2019-02-28T21:53:08.643Z,8.48
2019-02-28T21:55:39.158Z,9.55
2019-02-28T21:58:09.679Z,8.88
2019-02-28T22:00:40.205Z,9.48
2019-02-28T22:03:10.747Z,9.40
2019-02-28T22:05:41.350Z,9.03
2019-02-28T22:08:11.928Z,10.08
2019-02-28T22:10:42.546Z,8.95
2019-02-28T22:13:13.210Z,10.05
2019-02-28T22:15:43.785Z,10.20
2019-02-28T22:18:14.611Z,9.50
2019-02-28T22:20:45.735Z,8.58
2019-02-28T22:23:16.615Z,9.00
2019-02-28T22:25:47.397Z,10.30
2019-02-28T22:28:18.091Z,11.20
2019-02-28T22:31:08.001Z,9.75
2019-02-28T22:33:55.685Z,10.72
2019-02-28T22:36:30.184Z,10.05
2019-02-28T22:39:00.843Z,9.70
2019-02-28T22:41:31.500Z,9.78
2019-02-28T22:44:02.075Z,9.63
2019-02-28T22:46:32.784Z,11.30
2019-02-28T22:49:03.416Z,10.50
2019-02-28T22:51:34.073Z,11.85
2019-02-28T22:54:04.745Z,12.23
2019-02-28T22:56:35.353Z,13.50
2019-02-28T22:59:05.941Z,13.28
2019-02-28T23:01:37.558Z,12.37
2019-02-28T23:04:08.417Z,12.85
2019-02-28T23:06:39.083Z,12.28
2019-02-28T23:09:09.658Z,11.60
2019-02-28T23:11:40.309Z,10.70
2019-02-28T23:14:10.892Z,12.35
2019-02-28T23:16:41.489Z,11.48
2019-02-28T23:19:12.224Z,13.68
2019-02-28T23:21:42.806Z,14.13
2019-02-28T23:24:13.500Z,14.35
2019-02-28T23:27:18.862Z,12.63
2019-02-28T23:30:12.622Z,12.40
2019-02-28T23:32:59.356Z,12.30
2019-02-28T23:35:49.974Z,11.25
2019-02-28T23:38:20.602Z,11.33
2019-02-28T23:40:51.235Z,11.63
2019-02-28T23:43:21.923Z,11.30
2019-02-28T23:45:52.592Z,12.45
2019-02-28T23:48:23.272Z,13.30
2019-02-28T23:50:53.973Z,11.93
2019-02-28T23:53:24.512Z,12.23
2019-02-28T23:55:55.157Z,11.45
2019-02-28T23:58:25.842Z,12.55
